Time;durP1;ratioP1;P1;durP2;ratioP2;P2;SDS_P1;SDS_P2;PMS_P1;PMS_P2;Temp;Humidity;BMP_temperature;BMP_pressure;BME280_temperature;BME280_humidity;BME280_pressure;Samples;Min_cycle;Max_cycle;Signal;HPM_P1;HPM_P2
2023/09/26 00:00:21;;;;;;;3.95;3.03;;;;;;;11.89;80.96;101653.59;7383273;19;20796;-62
2023/09/26 00:02:51;;;;;;;4.93;3.33;;;;;;;11.87;81.10;101659.00;7384323;19;20437;-62
2023/09/26 00:05:19;;;;;;;6.60;3.33;;;;;;;11.86;81.00;101651.19;7384963;19;20364;-62
2023/09/26 00:07:48;;;;;;;4.30;3.70;;;;;;;11.83;81.17;101655.84;7381901;19;20398;-63
2023/09/26 00:10:16;;;;;;;7.32;3.50;;;;;;;11.81;81.27;101652.50;7381571;19;20341;-62
2023/09/26 00:12:43;;;;;;;6.32;4.20;;;;;;;11.78;81.30;101660.81;7381030;19;20563;-63
2023/09/26 00:15:11;;;;;;;4.82;3.40;;;;;;;11.74;81.24;101651.47;7379334;19;20398;-62
2023/09/26 00:17:39;;;;;;;4.70;3.35;;;;;;;11.71;81.20;101646.50;7383983;19;20390;-63
2023/09/26 00:20:16;;;;;;;5.40;3.30;;;;;;;11.70;81.46;101644.81;7384067;19;20359;-63
2023/09/26 00:22:43;;;;;;;4.72;3.90;;;;;;;11.68;81.80;101646.81;7381183;19;20431;-63
2023/09/26 00:25:10;;;;;;;4.72;3.72;;;;;;;11.65;81.73;101644.47;7381299;19;20367;-63
2023/09/26 00:27:37;;;;;;;5.20;3.40;;;;;;;11.62;81.83;101647.44;7382526;19;20356;-62
2023/09/26 00:30:05;;;;;;;4.88;3.70;;;;;;;11.60;82.13;101641.44;7379123;19;20384;-62
2023/09/26 00:32:32;;;;;;;4.88;3.30;;;;;;;11.57;82.13;101639.13;7382348;19;20375;-63
2023/09/26 00:35:00;;;;;;;5.03;3.30;;;;;;;11.55;82.06;101636.59;7380254;19;20436;-63
2023/09/26 00:37:27;;;;;;;6.60;3.70;;;;;;;11.54;82.45;101642.06;7382017;19;20403;-61
2023/09/26 00:39:56;;;;;;;6.93;4.10;;;;;;;11.53;82.19;101637.75;7380522;19;20440;-63
2023/09/26 00:42:23;;;;;;;5.65;3.90;;;;;;;11.52;82.34;101641.41;7382594;19;20404;-63
2023/09/26 00:44:50;;;;;;;5.78;3.85;;;;;;;11.51;82.37;101637.09;7375317;19;20376;-63
2023/09/26 00:47:17;;;;;;;6.63;4.55;;;;;;;11.47;82.49;101631.25;7382009;19;20710;-63
2023/09/26 00:49:44;;;;;;;5.95;4.68;;;;;;;11.45;82.73;101627.09;7378844;19;21005;-62
2023/09/26 00:52:11;;;;;;;4.82;4.07;;;;;;;11.44;82.56;101618.28;7382304;19;20829;-63
2023/09/26 00:54:39;;;;;;;5.97;4.18;;;;;;;11.42;82.81;101630.91;7379206;19;20364;-63
2023/09/26 00:57:06;;;;;;;5.85;3.97;;;;;;;11.39;82.82;101631.19;7380042;19;20379;-62
2023/09/26 00:59:33;;;;;;;6.05;4.10;;;;;;;11.35;83.11;101630.69;7381731;19;20857;-61
2023/09/26 01:02:00;;;;;;;6.15;4.30;;;;;;;11.33;83.35;101627.38;7382219;19;20375;-63
2023/09/26 01:04:27;;;;;;;8.10;4.23;;;;;;;11.32;83.65;101625.69;7380193;19;20394;-62
2023/09/26 01:06:54;;;;;;;6.88;4.68;;;;;;;11.31;83.71;101618.72;7379242;19;20380;-62
2023/09/26 01:09:23;;;;;;;6.15;4.78;;;;;;;11.32;83.93;101619.53;7379936;19;20740;-62
2023/09/26 01:11:49;;;;;;;5.13;4.53;;;;;;;11.30;83.82;101619.69;7375064;19;20395;-63
2023/09/26 01:14:16;;;;;;;7.28;5.15;;;;;;;11.31;83.98;101623.19;7378336;19;20379;-63
2023/09/26 01:16:43;;;;;;;5.57;4.80;;;;;;;11.31;84.29;101624.03;7378985;19;20364;-62
2023/09/26 01:19:11;;;;;;;7.32;4.57;;;;;;;11.31;84.10;101629.34;7378901;19;21013;-63
2023/09/26 01:21:38;;;;;;;6.57;4.57;;;;;;;11.29;84.17;101626.00;7380737;19;20891;-63
2023/09/26 01:24:05;;;;;;;5.57;4.60;;;;;;;11.30;84.48;101622.34;7378799;19;20381;-63
2023/09/26 01:26:36;;;;;;;5.77;4.43;;;;;;;11.31;84.07;101612.56;7380747;19;20433;-63
2023/09/26 01:29:04;;;;;;;7.60;4.57;;;;;;;11.31;83.99;101615.22;7377252;19;20372;-63
2023/09/26 01:31:35;;;;;;;5.47;4.38;;;;;;;11.31;84.35;101618.72;7381184;19;20372;-63
2023/09/26 01:34:03;;;;;;;5.90;4.45;;;;;;;11.30;84.09;101619.69;7380511;19;20389;-63
2023/09/26 01:36:31;;;;;;;7.30;4.40;;;;;;;11.29;84.26;101612.72;7380816;19;20383;-63
2023/09/26 01:38:58;;;;;;;5.65;4.10;;;;;;;11.29;84.07;101610.06;7378089;19;20375;-62
2023/09/26 01:41:27;;;;;;;6.00;4.70;;;;;;;11.27;84.00;101606.75;7378422;19;20364;-63
2023/09/26 01:43:53;;;;;;;5.00;4.10;;;;;;;11.26;83.71;101606.88;7380275;19;20349;-62
2023/09/26 01:46:20;;;;;;;5.75;4.05;;;;;;;11.23;83.61;101605.38;7380492;19;20377;-62
2023/09/26 01:48:47;;;;;;;5.75;4.20;;;;;;;11.22;83.50;101606.38;7379117;19;20402;-63
2023/09/26 01:51:14;;;;;;;5.40;4.45;;;;;;;11.20;83.82;101614.50;7380503;19;20954;-62
2023/09/26 01:53:41;;;;;;;4.88;4.35;;;;;;;11.20;83.82;101616.34;7379372;19;20383;-62
2023/09/26 01:56:08;;;;;;;5.50;4.45;;;;;;;11.17;83.80;101608.66;7376199;19;20379;-61
2023/09/26 01:58:35;;;;;;;4.90;4.40;;;;;;;11.15;84.01;101606.16;7378129;19;20389;-62
2023/09/26 02:01:02;;;;;;;5.15;4.20;;;;;;;11.13;83.65;101607.31;7376988;19;20385;-63
2023/09/26 02:03:29;;;;;;;5.97;4.50;;;;;;;11.09;83.61;101604.13;7375558;19;20741;-62
2023/09/26 02:05:57;;;;;;;6.13;4.22;;;;;;;11.07;83.69;101606.13;7376268;19;20460;-63
2023/09/26 02:08:27;;;;;;;8.65;5.00;;;;;;;11.04;83.75;101608.25;7377448;19;20348;-63
2023/09/26 02:10:54;;;;;;;5.90;4.57;;;;;;;11.01;83.87;101606.75;7375237;19;20357;-62
2023/09/26 02:13:21;;;;;;;5.72;4.15;;;;;;;10.99;84.09;101604.25;7376434;19;20747;-62
2023/09/26 02:15:48;;;;;;;7.47;4.37;;;;;;;10.94;83.70;101603.03;7375376;19;20810;-63
2023/09/26 02:18:15;;;;;;;6.03;4.28;;;;;;;10.92;84.00;101603.19;7377797;19;20835;-63
2023/09/26 02:20:42;;;;;;;5.53;4.23;;;;;;;10.90;84.00;101605.19;7374422;19;20515;-62
2023/09/26 02:23:10;;;;;;;5.32;4.70;;;;;;;10.87;84.07;101597.50;7377880;19;20899;-63
2023/09/26 02:25:38;;;;;;;6.65;4.57;;;;;;;10.85;84.13;101599.47;7379549;19;20372;-63
2023/09/26 02:28:05;;;;;;;5.40;4.30;;;;;;;10.83;84.17;101593.50;7376043;19;20415;-63
2023/09/26 02:30:32;;;;;;;6.68;4.15;;;;;;;10.80;84.06;101580.53;7377776;19;20376;-63
2023/09/26 02:32:59;;;;;;;7.23;4.47;;;;;;;10.77;84.07;101588.78;7376695;19;20361;-63
2023/09/26 02:35:26;;;;;;;5.90;4.40;;;;;;;10.75;84.19;101581.00;7376373;19;21576;-62
2023/09/26 02:37:53;;;;;;;5.85;4.75;;;;;;;10.73;84.27;101587.44;7378276;19;20479;-63
2023/09/26 02:40:19;;;;;;;5.70;4.57;;;;;;;10.69;84.10;101586.94;7379185;19;20872;-63
2023/09/26 02:42:46;;;;;;;5.20;4.10;;;;;;;10.68;84.37;101581.78;7378341;19;20884;-63
2023/09/26 02:45:13;;;;;;;6.85;4.60;;;;;;;10.65;84.39;101585.56;7375917;19;21854;-63
2023/09/26 02:47:42;;;;;;;6.35;4.75;;;;;;;10.63;84.40;101592.03;7379445;19;20376;-63
2023/09/26 02:50:09;;;;;;;5.90;4.55;;;;;;;10.59;84.94;101591.47;7378087;19;20392;-63
2023/09/26 02:52:39;;;;;;;5.43;4.50;;;;;;;10.58;84.93;101590.66;7377182;19;20467;-63
2023/09/26 02:55:07;;;;;;;6.18;4.60;;;;;;;10.58;84.67;101589.81;7372972;19;20380;-63
2023/09/26 02:57:34;;;;;;;5.45;4.60;;;;;;;10.56;84.80;101592.63;7378482;19;20361;-63
2023/09/26 03:00:11;;;;;;;5.53;4.73;;;;;;;10.55;84.54;101595.44;7376733;19;20376;-62
2023/09/26 03:02:39;;;;;;;5.30;4.80;;;;;;;10.52;84.34;101587.75;7376306;19;20364;-62
2023/09/26 03:05:06;;;;;;;5.93;4.70;;;;;;;10.50;84.67;101582.63;7376288;19;20766;-63
2023/09/26 03:07:32;;;;;;;5.18;4.68;;;;;;;10.48;84.53;101589.91;7379587;19;21236;-62
2023/09/26 03:09:59;;;;;;;7.85;5.50;;;;;;;10.47;85.03;101590.88;7377029;19;20424;-64
2023/09/26 03:12:26;;;;;;;6.32;5.50;;;;;;;10.47;85.21;101588.22;7380622;19;20372;-63
2023/09/26 03:14:54;;;;;;;6.90;5.38;;;;;;;10.46;85.26;101580.44;7380398;19;20383;-62
2023/09/26 03:17:20;;;;;;;6.13;5.43;;;;;;;10.43;85.76;101578.06;7386282;19;20347;-63
2023/09/26 03:19:47;;;;;;;6.82;5.55;;;;;;;10.40;85.85;101576.56;7385524;19;20352;-63
2023/09/26 03:22:14;;;;;;;7.20;5.72;;;;;;;10.37;86.22;101579.50;7384325;19;20368;-62
2023/09/26 03:24:41;;;;;;;7.20;5.93;;;;;;;10.35;86.31;101578.84;7381914;19;20368;-62
2023/09/26 03:27:08;;;;;;;6.88;6.00;;;;;;;10.34;86.50;101574.50;7384314;19;20360;-62
2023/09/26 03:29:34;;;;;;;8.48;6.25;;;;;;;10.31;86.64;101570.34;7381787;19;20361;-62
2023/09/26 03:32:02;;;;;;;6.60;5.50;;;;;;;10.29;86.48;101569.66;7383895;19;20949;-62
2023/09/26 03:34:30;;;;;;;8.77;6.80;;;;;;;10.28;86.45;101567.94;7382580;19;20393;-62
2023/09/26 03:36:57;;;;;;;12.77;10.02;;;;;;;10.26;86.64;101577.88;7380294;19;20398;-63
2023/09/26 03:39:24;;;;;;;7.63;6.07;;;;;;;10.22;86.48;101573.84;7382483;19;20361;-63
2023/09/26 03:41:50;;;;;;;8.70;7.17;;;;;;;10.19;86.47;101580.31;7380944;19;20369;-63
2023/09/26 03:44:17;;;;;;;9.48;6.78;;;;;;;10.16;86.90;101577.97;7384938;19;20376;-63
2023/09/26 03:46:44;;;;;;;7.28;5.70;;;;;;;10.15;86.86;101576.28;7379499;19;20348;-63
2023/09/26 03:49:13;;;;;;;6.63;5.93;;;;;;;10.13;86.86;101575.59;7383305;19;20376;-61
2023/09/26 03:51:40;;;;;;;8.05;5.55;;;;;;;10.11;86.64;101571.44;7383450;19;20414;-63
2023/09/26 03:54:07;;;;;;;7.65;4.43;;;;;;;10.11;87.04;101576.75;7382804;19;20402;-63
2023/09/26 03:56:34;;;;;;;8.55;6.05;;;;;;;10.09;86.79;101573.41;7381690;19;20376;-63
2023/09/26 03:59:01;;;;;;;7.05;5.70;;;;;;;10.08;87.12;101572.56;7382387;19;20897;-62
2023/09/26 04:01:28;;;;;;;9.43;6.03;;;;;;;10.07;87.21;101567.41;7383119;19;20397;-62
2023/09/26 04:03:55;;;;;;;9.70;5.90;;;;;;;10.03;87.27;101572.22;7382808;19;20364;-63
2023/09/26 04:06:22;;;;;;;7.10;6.00;;;;;;;10.03;87.60;101568.69;7382615;19;20399;-61
2023/09/26 04:08:48;;;;;;;5.88;4.47;;;;;;;10.03;87.70;101566.91;7382351;19;20392;-63
2023/09/26 04:11:16;;;;;;;4.80;3.97;;;;;;;10.04;87.42;101560.59;7380151;19;20474;-63
2023/09/26 04:13:43;;;;;;;5.90;4.00;;;;;;;10.05;87.47;101567.59;7383090;19;20409;-63
2023/09/26 04:16:10;;;;;;;5.50;4.17;;;;;;;10.07;87.67;101567.41;7380211;19;20418;-63
2023/09/26 04:18:37;;;;;;;5.72;4.07;;;;;;;10.09;87.86;101560.16;7383086;19;20379;-62
2023/09/26 04:21:06;;;;;;;7.07;5.10;;;;;;;10.12;87.75;101563.34;7382635;19;20366;-63
2023/09/26 04:23:38;;;;;;;6.13;4.80;;;;;;;10.12;87.57;101558.03;7381330;19;20356;-63
2023/09/26 04:26:15;;;;;;;5.95;4.80;;;;;;;10.08;87.59;101554.03;7379886;19;20374;-62
2023/09/26 04:28:45;;;;;;;5.45;4.70;;;;;;;10.04;87.43;101550.00;7382691;19;20931;-62
2023/09/26 04:31:17;;;;;;;6.43;4.82;;;;;;;9.99;87.08;101549.63;7382606;19;20818;-63
2023/09/26 04:33:46;;;;;;;6.03;5.38;;;;;;;9.94;87.60;101549.22;7381854;19;20405;-62
2023/09/26 04:36:13;;;;;;;9.57;5.88;;;;;;;9.92;88.06;101549.38;7382659;19;20464;-62
2023/09/26 04:38:41;;;;;;;8.90;7.47;;;;;;;9.90;88.05;101542.56;7382759;19;20789;-62
2023/09/26 04:41:07;;;;;;;56.55;50.35;;;;;;;10.12;96.10;101542.13;7379524;19;20742;-60
2023/09/26 04:43:36;;;;;;;10.02;8.52;;;;;;;10.97;100.00;101542.50;7382404;19;20390;-61
2023/09/26 04:46:09;;;;;;;6.63;5.50;;;;;;;11.15;96.47;101528.31;7384595;19;20381;-61
2023/09/26 04:48:36;;;;;;;9.85;6.43;;;;;;;11.52;100.00;101535.13;7382772;19;20414;-61
2023/09/26 04:51:08;;;;;;;7.00;5.10;;;;;;;12.23;100.00;101533.81;7382354;19;20369;-60
2023/09/26 04:53:35;;;;;;;5.85;4.28;;;;;;;12.17;90.22;101529.97;7384028;19;20341;-61
2023/09/26 04:56:03;;;;;;;5.03;3.90;;;;;;;11.89;87.42;101525.97;7379709;19;20389;-60
2023/09/26 04:58:30;;;;;;;6.35;4.80;;;;;;;11.63;86.19;101535.66;7379879;19;20348;-62
2023/09/26 05:01:00;;;;;;;6.22;4.45;;;;;;;11.42;86.05;101530.75;7380625;19;20766;-61
2023/09/26 05:03:27;;;;;;;5.28;4.50;;;;;;;11.23;85.90;101531.00;7379812;19;20383;-61
2023/09/26 05:05:54;;;;;;;5.50;4.53;;;;;;;11.06;85.47;101523.97;7383195;19;20365;-62
2023/09/26 05:08:21;;;;;;;6.05;5.22;;;;;;;10.91;85.81;101527.19;7382724;19;20446;-61
2023/09/26 05:10:49;;;;;;;7.35;5.53;;;;;;;10.85;86.99;101526.97;7379699;19;20824;-61
2023/09/26 05:13:16;;;;;;;8.43;5.20;;;;;;;10.76;86.78;101524.28;7378960;19;20400;-61
2023/09/26 05:15:43;;;;;;;8.73;5.45;;;;;;;10.68;86.44;101532.19;7381234;19;20353;-61
2023/09/26 05:18:10;;;;;;;6.65;5.57;;;;;;;10.60;86.66;101525.00;7380502;19;20903;-61
2023/09/26 05:20:37;;;;;;;8.27;6.05;;;;;;;10.54;86.75;101522.97;7381926;19;20373;-59
2023/09/26 05:23:04;;;;;;;6.28;5.60;;;;;;;10.52;87.00;101519.63;7380065;19;20976;-61
2023/09/26 05:25:33;;;;;;;9.10;6.28;;;;;;;10.48;87.09;101526.22;7381929;19;20529;-61
2023/09/26 05:27:59;;;;;;;7.65;5.95;;;;;;;10.47;87.38;101529.84;7382049;19;20497;-60
2023/09/26 05:30:27;;;;;;;9.07;6.32;;;;;;;10.47;87.29;101527.22;7381656;19;20365;-61
2023/09/26 05:32:53;;;;;;;7.68;5.88;;;;;;;10.46;87.37;101532.69;7380904;19;20797;-60
2023/09/26 05:35:23;;;;;;;10.27;6.80;;;;;;;10.67;96.02;101541.13;7380130;19;20726;-60
2023/09/26 05:37:50;;;;;;;11.10;7.47;;;;;;;11.83;96.26;101536.19;7380657;19;20709;-60
2023/09/26 05:40:17;;;;;;;10.90;5.30;;;;;;;11.90;88.04;101538.25;7378594;19;20437;-61
2023/09/26 05:42:43;;;;;;;9.00;5.78;;;;;;;11.79;85.85;101540.22;7380235;19;20357;-61
2023/09/26 05:45:11;;;;;;;9.65;5.50;;;;;;;11.72;86.49;101543.66;7379747;19;20363;-61
2023/09/26 05:47:38;;;;;;;12.48;6.18;;;;;;;11.62;84.96;101541.97;7374293;19;20404;-62
2023/09/26 05:50:06;;;;;;;14.73;12.18;;;;;;;11.52;84.18;101540.44;7379854;19;20928;-62
2023/09/26 05:52:33;;;;;;;7.60;6.53;;;;;;;11.43;84.44;101543.06;7389001;19;20372;-61
2023/09/26 05:55:00;;;;;;;8.43;6.35;;;;;;;11.39;84.82;101544.38;7389783;19;20884;-61
2023/09/26 05:57:27;;;;;;;19.85;16.77;;;;;;;11.36;84.82;101536.72;7386278;19;20379;-60
2023/09/26 05:59:54;;;;;;;7.03;6.00;;;;;;;11.34;85.12;101544.00;7391791;19;20440;-61
2023/09/26 06:02:21;;;;;;;7.50;6.68;;;;;;;11.36;85.10;101547.34;7388882;19;20356;-61
2023/09/26 06:04:48;;;;;;;9.02;6.97;;;;;;;11.40;85.66;101545.22;7390913;19;20369;-61
2023/09/26 06:07:16;;;;;;;7.50;6.00;;;;;;;11.44;85.07;101541.25;7390778;19;20374;-62
2023/09/26 06:09:42;;;;;;;7.93;6.10;;;;;;;11.50;85.87;101545.09;7389575;19;20996;-60
2023/09/26 06:12:26;;;;;;;8.27;5.88;;;;;;;11.60;85.73;101543.13;7388506;19;20333;-61
2023/09/26 06:14:55;;;;;;;7.67;6.03;;;;;;;11.66;85.19;101539.00;7389404;19;20371;-61
2023/09/26 06:17:21;;;;;;;8.15;6.03;;;;;;;11.71;85.23;101541.97;7386375;19;20943;-61
2023/09/26 06:19:48;;;;;;;8.95;6.53;;;;;;;11.76;85.15;101537.84;7387956;19;20402;-61
2023/09/26 06:22:16;;;;;;;8.47;6.90;;;;;;;11.84;85.13;101535.22;7389501;19;20372;-61
2023/09/26 06:24:43;;;;;;;8.27;5.88;;;;;;;11.93;85.27;101537.94;7389534;19;20382;-62
2023/09/26 06:27:10;;;;;;;9.35;7.43;;;;;;;12.00;85.05;101536.28;7388431;19;20448;-61
2023/09/26 06:29:40;;;;;;;8.55;6.38;;;;;;;12.10;85.16;101544.13;7389475;19;20364;-61
2023/09/26 06:32:10;;;;;;;8.33;6.53;;;;;;;12.18;85.05;101536.97;7388596;19;20397;-62
2023/09/26 06:34:39;;;;;;;10.25;8.80;;;;;;;12.30;85.18;101541.97;7388814;19;20379;-61
2023/09/26 06:37:06;;;;;;;8.18;6.30;;;;;;;12.44;85.17;101541.31;7388632;19;21019;-62
2023/09/26 06:39:33;;;;;;;8.20;6.22;;;;;;;12.58;84.81;101539.78;7388141;19;20453;-62
2023/09/26 06:42:00;;;;;;;7.38;6.22;;;;;;;12.72;84.73;101547.09;7388296;19;20757;-61
2023/09/26 06:44:29;;;;;;;8.27;6.30;;;;;;;12.88;84.52;101543.59;7386175;19;20387;-61
2023/09/26 06:46:56;;;;;;;8.75;6.47;;;;;;;13.02;84.21;101555.38;7386494;19;20384;-62
2023/09/26 06:49:23;;;;;;;6.43;5.70;;;;;;;13.15;83.93;101547.69;7387294;19;20398;-62
2023/09/26 06:51:51;;;;;;;7.63;5.97;;;;;;;13.29;83.66;101548.84;7388911;19;20356;-61
2023/09/26 06:54:18;;;;;;;8.77;6.10;;;;;;;13.43;83.58;101548.16;7387189;19;20431;-61
2023/09/26 06:56:45;;;;;;;6.88;6.07;;;;;;;13.59;83.30;101549.88;7386197;19;20702;-62
2023/09/26 06:59:12;;;;;;;7.82;5.95;;;;;;;13.78;82.96;101555.81;7388640;19;20401;-61
2023/09/26 07:01:39;;;;;;;6.97;5.30;;;;;;;13.94;82.53;101561.06;7387178;19;20885;-61
2023/09/26 07:04:13;;;;;;;6.28;5.60;;;;;;;14.11;81.92;101552.94;7386721;19;20421;-60
2023/09/26 07:06:41;;;;;;;6.13;4.97;;;;;;;14.22;81.91;101550.69;7387551;19;20376;-62
2023/09/26 07:09:08;;;;;;;6.18;4.97;;;;;;;14.48;81.74;101552.16;7387941;19;20360;-61
2023/09/26 07:11:35;;;;;;;7.78;5.30;;;;;;;14.66;80.84;101550.03;7387057;19;20361;-59
2023/09/26 07:14:02;;;;;;;6.78;4.85;;;;;;;14.84;80.75;101556.88;7387459;19;20341;-61
2023/09/26 07:16:33;;;;;;;15.70;11.47;;;;;;;15.13;80.19;101555.25;7387196;19;20402;-62
2023/09/26 07:19:00;;;;;;;24.90;17.50;;;;;;;15.40;79.83;101546.56;7386806;19;20360;-62
2023/09/26 07:21:27;;;;;;;6.82;4.53;;;;;;;15.66;78.65;101539.88;7388321;19;20352;-62
2023/09/26 07:23:54;;;;;;;6.43;4.45;;;;;;;15.82;77.51;101541.56;7386135;19;20361;-61
2023/09/26 07:26:21;;;;;;;5.45;4.15;;;;;;;15.95;76.94;101543.53;7385862;19;20364;-62
2023/09/26 07:28:49;;;;;;;6.15;4.35;;;;;;;16.04;74.73;101531.69;7388921;19;20369;-61
2023/09/26 07:31:18;;;;;;;6.00;4.28;;;;;;;16.16;74.78;101534.72;7386806;19;20368;-61
2023/09/26 07:33:45;;;;;;;7.78;4.88;;;;;;;16.35;75.20;101533.22;7387643;19;20352;-62
2023/09/26 07:36:13;;;;;;;5.90;4.00;;;;;;;16.45;74.29;101541.78;7386900;19;20360;-62
2023/09/26 07:38:40;;;;;;;4.95;4.05;;;;;;;16.51;74.03;101549.00;7384681;19;20526;-60
2023/09/26 07:41:07;;;;;;;8.00;4.00;;;;;;;16.68;74.46;101544.19;7387339;19;20377;-62
2023/09/26 07:43:34;;;;;;;10.57;7.65;;;;;;;16.90;73.46;101545.03;7387124;19;20372;-62
2023/09/26 07:46:05;;;;;;;51.40;35.38;;;;;;;17.07;73.73;101549.03;7386890;19;20372;-60
2023/09/26 07:48:33;;;;;;;9.93;4.77;;;;;;;17.22;72.41;101550.78;7386708;19;20364;-63
2023/09/26 07:51:00;;;;;;;5.38;3.80;;;;;;;17.32;71.78;101546.72;7385029;19;20357;-62
2023/09/26 07:53:27;;;;;;;5.30;4.00;;;;;;;17.48;71.88;101547.41;7386697;19;20368;-62
2023/09/26 07:55:58;;;;;;;6.20;3.53;;;;;;;17.60;71.61;101545.81;7385560;19;20372;-62
2023/09/26 07:58:25;;;;;;;5.00;3.42;;;;;;;17.69;70.86;101547.28;7389439;19;20394;-62
2023/09/26 08:00:53;;;;;;;5.90;3.83;;;;;;;17.79;70.43;101546.91;7392991;19;20356;-61
2023/09/26 08:03:20;;;;;;;4.85;3.47;;;;;;;17.92;70.58;101551.50;7394442;19;20856;-62
2023/09/26 08:05:48;;;;;;;5.17;3.20;;;;;;;18.05;69.80;101553.41;7394916;19;20427;-62
2023/09/26 08:08:16;;;;;;;4.53;3.17;;;;;;;18.17;69.20;101545.56;7392039;19;20367;-62
2023/09/26 08:10:43;;;;;;;3.90;3.03;;;;;;;18.26;67.98;101539.78;7392807;19;20405;-62
2023/09/26 08:13:09;;;;;;;6.03;2.80;;;;;;;18.34;67.25;101536.09;7392813;19;20477;-62
2023/09/26 08:15:36;;;;;;;9.93;6.60;;;;;;;18.48;67.45;101536.91;7393399;19;20356;-62
2023/09/26 08:18:04;;;;;;;4.23;3.00;;;;;;;18.67;67.33;101540.63;7390043;19;20463;-62
2023/09/26 08:20:31;;;;;;;3.90;2.72;;;;;;;18.84;66.83;101535.66;7393305;19;20387;-63
2023/09/26 08:22:58;;;;;;;4.88;3.00;;;;;;;18.98;66.33;101536.47;7394570;19;20374;-60
2023/09/26 08:25:26;;;;;;;4.00;2.85;;;;;;;19.12;65.97;101530.03;7393448;19;20471;-62
2023/09/26 08:27:54;;;;;;;4.25;2.50;;;;;;;19.31;66.22;101531.00;7393165;19;20466;-62
2023/09/26 08:30:21;;;;;;;6.80;2.97;;;;;;;19.59;65.62;101527.16;7392316;19;20372;-62
2023/09/26 08:32:47;;;;;;;4.60;2.90;;;;;;;19.80;64.34;101526.88;7392098;19;20368;-62
2023/09/26 08:35:14;;;;;;;4.60;2.70;;;;;;;20.01;64.33;101525.69;7390531;19;20357;-62
2023/09/26 08:37:43;;;;;;;4.53;2.65;;;;;;;20.26;63.98;101514.97;7390452;19;20389;-62
2023/09/26 08:40:13;;;;;;;4.00;2.33;;;;;;;20.49;63.01;101518.94;7391777;19;20387;-64
2023/09/26 08:42:41;;;;;;;3.50;2.17;;;;;;;20.70;62.31;101521.25;7393569;19;20412;-62
2023/09/26 08:45:09;;;;;;;3.83;2.90;;;;;;;20.88;60.22;101517.75;7395208;19;20880;-63
2023/09/26 08:47:39;;;;;;;4.03;2.47;;;;;;;20.99;60.26;101521.56;7393164;19;20376;-63
2023/09/26 08:50:07;;;;;;;4.00;2.42;;;;;;;21.10;59.13;101526.25;7390215;19;20347;-63
2023/09/26 08:52:34;;;;;;;5.15;4.10;;;;;;;21.22;59.38;101518.19;7392002;19;20420;-62
2023/09/26 08:55:02;;;;;;;3.63;2.75;;;;;;;21.34;59.38;101520.97;7390773;19;20367;-62
2023/09/26 08:57:31;;;;;;;4.00;2.20;;;;;;;21.47;58.97;101523.53;7391603;19;20376;-60
2023/09/26 09:00:01;;;;;;;4.43;2.22;;;;;;;21.58;58.44;101528.16;7390598;19;20773;-61
2023/09/26 09:02:31;;;;;;;6.85;2.40;;;;;;;21.70;57.37;101522.00;7391455;19;20364;-62
2023/09/26 09:04:58;;;;;;;4.03;2.20;;;;;;;21.77;57.52;101514.63;7391920;19;20352;-61
2023/09/26 09:07:27;;;;;;;3.25;2.30;;;;;;;21.73;56.54;101513.44;7390695;19;20367;-60
2023/09/26 09:10:07;;;;;;;211.97;162.67;;;;;;;21.73;57.77;101510.72;7388106;19;20359;-61
2023/09/26 09:12:37;;;;;;;4.35;2.50;;;;;;;21.75;57.00;101503.22;7390610;19;20372;-61
2023/09/26 09:15:17;;;;;;;4.97;3.10;;;;;;;21.80;58.03;101508.75;7392311;19;20336;-62
2023/09/26 09:17:45;;;;;;;4.03;2.53;;;;;;;21.86;57.31;101507.81;7388911;19;20894;-61
2023/09/26 09:20:16;;;;;;;3.47;2.42;;;;;;;21.84;57.58;101507.22;7391239;19;20349;-61
2023/09/26 09:22:46;;;;;;;14.00;10.07;;;;;;;21.92;57.77;101501.50;7391226;19;20348;-62
2023/09/26 09:25:13;;;;;;;6.82;3.28;;;;;;;22.09;57.57;101503.56;7390080;19;20357;-61
2023/09/26 09:27:42;;;;;;;3.47;2.08;;;;;;;22.18;57.34;101485.94;7389629;19;20332;-62
2023/09/26 09:30:15;;;;;;;2.90;1.95;;;;;;;22.30;56.97;101489.50;7389848;19;20344;-61
2023/09/26 09:32:42;;;;;;;60.72;51.40;;;;;;;22.48;56.93;101493.16;7391029;19;20356;-61
2023/09/26 09:35:13;;;;;;;28.17;21.67;;;;;;;22.59;56.81;101490.47;7390970;19;20384;-62
2023/09/26 09:37:50;;;;;;;39.33;28.95;;;;;;;22.73;56.51;101488.31;7388662;19;20899;-61
2023/09/26 09:40:23;;;;;;;19.80;14.05;;;;;;;22.85;55.48;101484.81;7390154;19;20370;-61
2023/09/26 09:42:51;;;;;;;4.47;2.25;;;;;;;22.91;54.40;101481.13;7389635;19;20368;-60
2023/09/26 09:45:18;;;;;;;13.07;9.60;;;;;;;22.95;55.62;101482.28;7388833;19;20344;-62
2023/09/26 09:47:47;;;;;;;6.50;4.57;;;;;;;22.93;54.21;101482.56;7390408;19;20364;-62
2023/09/26 09:50:16;;;;;;;4.23;2.13;;;;;;;23.04;55.47;101480.91;7389264;19;20367;-62
2023/09/26 09:52:44;;;;;;;3.47;1.90;;;;;;;23.11;54.56;101487.00;7391523;19;20436;-61
2023/09/26 09:55:28;;;;;;;14.43;10.10;;;;;;;23.19;54.10;101478.50;7389057;19;20917;-60
2023/09/26 09:57:56;;;;;;;6.28;4.35;;;;;;;23.30;53.75;101484.13;7389957;19;20356;-61
2023/09/26 10:00:24;;;;;;;6.95;4.07;;;;;;;23.39;53.79;101474.53;7389524;19;20353;-61
2023/09/26 10:02:52;;;;;;;3.92;2.30;;;;;;;23.52;53.55;101476.97;7387904;19;20382;-61
2023/09/26 10:05:19;;;;;;;23.85;15.32;;;;;;;23.57;52.62;101474.38;7383833;19;20359;-61
2023/09/26 10:07:51;;;;;;;5.43;2.47;;;;;;;23.66;52.34;101472.06;7388222;19;20406;-59
2023/09/26 10:10:19;;;;;;;4.88;1.92;;;;;;;23.76;52.36;101479.59;7389269;19;20742;-61
2023/09/26 10:12:47;;;;;;;6.22;3.17;;;;;;;23.83;51.88;101476.75;7388839;19;20372;-61
2023/09/26 10:16:11;;;;;;;19.77;13.70;;;;;;;23.94;51.74;101479.34;7390367;19;20356;-61
2023/09/26 10:18:44;;;;;;;3.40;2.13;;;;;;;23.99;51.69;101471.34;7386724;19;20401;-61
2023/09/26 10:21:28;;;;;;;3.40;1.90;;;;;;;24.02;51.95;101473.53;7387737;19;20956;-60
2023/09/26 10:24:07;;;;;;;3.10;1.90;;;;;;;24.18;51.38;101465.66;7383930;19;20432;-61
2023/09/26 10:26:39;;;;;;;2.25;1.50;;;;;;;24.34;50.99;101464.81;7389644;19;21126;-62
2023/09/26 10:29:21;;;;;;;2.95;1.45;;;;;;;24.53;49.72;101459.16;7387760;19;20347;-62
2023/09/26 10:32:05;;;;;;;3.42;1.88;;;;;;;24.59;48.96;101463.59;7387572;19;20352;-61
2023/09/26 10:34:34;;;;;;;3.90;1.90;;;;;;;24.56;49.32;101464.06;7390294;19;20364;-60
2023/09/26 10:37:20;;;;;;;3.43;1.80;;;;;;;24.57;48.45;101452.16;7386642;19;20372;-62
2023/09/26 10:39:47;;;;;;;3.80;1.58;;;;;;;24.53;48.78;101459.16;7387867;19;20983;-61
2023/09/26 10:42:19;;;;;;;2.95;1.63;;;;;;;24.44;48.74;101458.75;7387192;19;20877;-61
2023/09/26 10:45:07;;;;;;;3.80;2.10;;;;;;;24.43;50.04;101457.91;7382080;19;20991;-62
2023/09/26 10:47:36;;;;;;;10.90;2.20;;;;;;;24.49;48.86;101461.53;7385273;19;21003;-62
2023/09/26 10:50:14;;;;;;;3.80;1.50;;;;;;;24.48;48.88;101446.31;7389312;19;20406;-61
2023/09/26 10:52:46;;;;;;;2.38;1.75;;;;;;;24.38;48.18;101441.56;7389061;19;20372;-61
2023/09/26 10:55:19;;;;;;;6.78;4.93;;;;;;;24.45;49.49;101440.56;7387585;19;20385;-61
2023/09/26 10:58:06;;;;;;;10.43;7.85;;;;;;;24.63;49.74;101443.03;7385173;19;20401;-61
2023/09/26 11:00:32;;;;;;;10.13;7.22;;;;;;;24.78;49.36;101440.50;7387100;19;21059;-62
2023/09/26 11:02:59;;;;;;;13.95;8.48;;;;;;;24.90;47.77;101439.56;7388699;19;20333;-62
2023/09/26 11:05:46;;;;;;;3.25;1.55;;;;;;;25.04;48.60;101440.81;7385279;19;20365;-62
2023/09/26 11:08:14;;;;;;;16.20;13.63;;;;;;;25.21;47.70;101438.88;7388246;19;20825;-62
2023/09/26 11:11:01;;;;;;;3.63;1.52;;;;;;;25.44;47.73;101439.66;7385925;19;20357;-61
2023/09/26 11:13:28;;;;;;;13.35;10.07;;;;;;;25.61;46.90;101431.41;7387660;19;20340;-62
2023/09/26 11:15:55;;;;;;;3.30;1.90;;;;;;;25.64;45.56;101437.13;7387040;19;20348;-61
2023/09/26 11:18:22;;;;;;;5.30;2.80;;;;;;;25.52;45.19;101425.59;7385139;19;20356;-62
2023/09/26 11:20:51;;;;;;;30.45;19.23;;;;;;;25.81;46.30;101422.59;7387516;19;20899;-62
2023/09/26 11:23:39;;;;;;;16.15;10.57;;;;;;;26.26;45.37;101410.44;7386973;19;20387;-62
2023/09/26 11:26:07;;;;;;;3.67;2.10;;;;;;;26.58;43.56;101418.53;7387151;19;20910;-62
2023/09/26 11:28:35;;;;;;;27.88;19.92;;;;;;;26.68;42.91;101415.03;7387845;19;20364;-60
2023/09/26 11:31:03;;;;;;;5.70;3.63;;;;;;;26.86;42.67;101411.00;7386494;19;20432;-59